Fort Benning, GA

11:26 AM EST on December 22, 2014 (GMT -0500)
Columbus Metro | Change Station
CLOSE
Current Station
Airport
Location: Columbus,
Elevation: 397 ft
Nearby Weather Stations

Elev 397 ft 32.52 °N, 84.94 °W | Updated 35 minutes ago

Overcast
Overcast
49 °F
Feels Like 49 °F
N
8
Wind Variable Wind from East

Today
High -- | Low -- °F
--% Chance of Precip.
Yesterday
High -- | Low -- °F
Precip. -- in
7:37 AM 5:38 PM
New Moon, 1% visible
Pressure 29.99 in
Visibility 5.0 miles
Clouds Overcast 500 ft
Dew Point 47 °F
Humidity 93%
Rainfall 0.00 in
Snow Depth Not available.
UV 1 out of 12
Pollen 1.40 out of 12
Air Quality Not available.
Flu Activity Not available.
METAR KCSG 221551Z 10007KT 5SM BR OVC005 09/08 A2999 RMK AO2 SLP154 T00940083

More Conditions Fewer Conditions

Pressure 29.99 in
Visibility 5.0 miles
Clouds Overcast 500 ft
Dew Point 47 °F
Humidity 93%
Rainfall 0.00 in
Snow Depth Not available.
UV 1 out of 12
Pollen 1.40 out of 12
Air Quality Not available.
Flu Activity Not available.
METAR KCSG 221551Z 10007KT 5SM BR OVC005 09/08 A2999 RMK AO2 SLP154 T00940083

More Conditions Fewer Conditions

10-Day Weather Forecast

Almanac

Astronomy

Dec. 22, 2014 Rise Set
Actual Time
Civil Twilight
Nautical Twilight
Astronomical Twilight
Moon
Length of Visible Light
Length of Day
Tomorrow will be .
, % of the Moon is Illuminated

Today's Extremes

State Highs State Lows

Community

WunderPhotos

Upload Photos

1,779,632 photos uploaded!

WunderBlogs® & News

Nearby

Air Quality

  Air Quality AQ Index Pollutant
Not available.

Snow Depth

Station Depth Elevation

Earthquake Activity

City Distance Mag. Time & Date
Minimum magnitude displayed is 2.5.

Coastal Water Temperatures

Place Temperature

Nearby Weather Stations